createdAt,value
2019-04-26T00:01:51.755Z,28.25
2019-04-26T00:04:21.054Z,26.40
2019-04-26T00:06:49.840Z,29.55
2019-04-26T00:09:38.707Z,23.00
2019-04-26T00:12:26.129Z,27.27
2019-04-26T00:15:03.112Z,24.02
2019-04-26T00:17:37.018Z,26.77
2019-04-26T00:20:07.951Z,22.62
2019-04-26T00:22:36.910Z,24.15
2019-04-26T00:25:06.912Z,27.58
2019-04-26T00:27:35.754Z,28.65
2019-04-26T00:30:05.980Z,24.27
2019-04-26T00:32:34.967Z,27.73
2019-04-26T00:35:04.249Z,24.30
2019-04-26T00:37:33.031Z,21.97
2019-04-26T00:40:01.954Z,29.07
2019-04-26T00:42:31.923Z,23.75
2019-04-26T00:45:00.855Z,27.45
2019-04-26T00:47:29.916Z,20.23
2019-04-26T00:50:00.151Z,26.73
2019-04-26T00:52:29.818Z,24.60
2019-04-26T00:54:59.339Z,29.42
2019-04-26T00:57:47.634Z,28.10
2019-04-26T01:00:18.137Z,23.98
2019-04-26T01:02:48.888Z,23.67
2019-04-26T01:05:18.819Z,28.17
2019-04-26T01:07:49.541Z,24.32
2019-04-26T01:10:19.549Z,28.20
2019-04-26T01:12:48.664Z,26.75
2019-04-26T01:15:20.092Z,23.42
2019-04-26T01:17:47.969Z,25.97
2019-04-26T01:20:18.913Z,29.32
2019-04-26T01:22:51.075Z,27.87
2019-04-26T01:25:44.038Z,22.30
2019-04-26T01:28:17.096Z,22.50
2019-04-26T01:30:46.634Z,26.35
2019-04-26T01:33:15.722Z,28.35
2019-04-26T01:35:44.617Z,23.62
2019-04-26T01:38:15.862Z,22.15
2019-04-26T01:40:46.375Z,22.58
2019-04-26T01:43:33.484Z,21.82
2019-04-26T01:46:08.897Z,21.52
2019-04-26T01:48:52.384Z,26.12
2019-04-26T01:51:41.932Z,32.48
2019-04-26T01:54:13.718Z,26.23
2019-04-26T01:56:42.611Z,26.07
2019-04-26T01:59:14.367Z,23.60
2019-04-26T02:01:45.511Z,23.57
2019-04-26T02:04:14.811Z,24.12
2019-04-26T02:06:43.803Z,28.80
2019-04-26T02:09:13.249Z,30.43
2019-04-26T02:11:42.325Z,22.80
2019-04-26T02:14:11.499Z,18.45
2019-04-26T02:16:41.005Z,22.52
2019-04-26T02:19:09.997Z,21.40
2019-04-26T02:21:46.772Z,25.77
2019-04-26T02:24:17.305Z,25.82
2019-04-26T02:26:47.499Z,22.37
2019-04-26T02:29:27.024Z,23.12
2019-04-26T02:31:58.803Z,24.95
2019-04-26T02:34:31.065Z,27.75
2019-04-26T02:37:02.447Z,20.90
2019-04-26T02:39:35.407Z,18.42
2019-04-26T02:42:07.678Z,22.52
2019-04-26T02:44:41.280Z,21.73
2019-04-26T02:47:39.268Z,21.80
2019-04-26T02:50:28.574Z,19.32
2019-04-26T02:53:21.593Z,19.52
2019-04-26T02:58:57.881Z,21.02
2019-04-26T03:01:31.255Z,18.55
2019-04-26T03:03:59.870Z,17.05
2019-04-26T03:06:32.780Z,21.65
2019-04-26T03:09:07.092Z,20.00
2019-04-26T03:12:03.092Z,16.65
2019-04-26T03:14:41.987Z,17.73
2019-04-26T03:17:13.674Z,21.05
2019-04-26T03:19:55.874Z,18.87
2019-04-26T03:22:37.330Z,23.10
2019-04-26T03:25:35.200Z,26.57
2019-04-26T03:28:16.003Z,24.57
2019-04-26T03:31:20.940Z,21.12
2019-04-26T03:34:04.909Z,27.90
2019-04-26T03:37:26.722Z,19.07
2019-04-26T03:40:11.782Z,23.47
2019-04-26T03:43:06.063Z,21.55
2019-04-26T03:45:58.929Z,25.80
2019-04-26T03:51:21.482Z,28.05
2019-04-26T03:53:53.330Z,36.28
2019-04-26T03:56:27.534Z,21.30
2019-04-26T03:59:01.056Z,21.82
2019-04-26T04:01:38.790Z,24.63
2019-04-26T04:04:26.978Z,28.00
2019-04-26T04:07:04.354Z,22.30
2019-04-26T04:09:29.838Z,22.10
2019-04-26T04:12:19.818Z,18.07
2019-04-26T04:15:03.501Z,26.97
2019-04-26T04:17:37.337Z,24.67
2019-04-26T04:20:20.554Z,25.68
2019-04-26T04:23:20.880Z,25.57
2019-04-26T04:25:52.333Z,21.50
2019-04-26T04:28:56.348Z,26.93
2019-04-26T04:31:55.764Z,26.93
2019-04-26T04:34:30.046Z,27.62
2019-04-26T04:37:01.829Z,29.63
2019-04-26T04:39:59.597Z,31.73
2019-04-26T04:42:43.397Z,35.03
2019-04-26T04:45:45.501Z,31.37
2019-04-26T04:48:18.500Z,32.80
2019-04-26T04:51:12.983Z,34.33
2019-04-26T04:53:59.180Z,30.00
2019-04-26T04:56:47.863Z,31.07
2019-04-26T04:59:23.683Z,31.33
2019-04-26T05:02:11.626Z,32.08
2019-04-26T05:04:45.252Z,32.17
2019-04-26T05:07:27.426Z,30.72
2019-04-26T05:10:18.640Z,29.95
2019-04-26T05:12:56.021Z,35.92
2019-04-26T05:15:29.529Z,34.43
2019-04-26T05:18:18.082Z,33.18
2019-04-26T05:21:06.429Z,37.93
2019-04-26T05:24:14.538Z,35.00
2019-04-26T05:27:08.016Z,31.23
2019-04-26T05:29:54.060Z,34.88
2019-04-26T05:32:40.500Z,41.60
2019-04-26T05:35:42.265Z,32.35
2019-04-26T05:38:40.133Z,36.08
2019-04-26T05:41:49.531Z,38.25
2019-04-26T05:44:41.098Z,36.90
2019-04-26T05:47:33.330Z,41.37
2019-04-26T05:50:24.340Z,37.20
2019-04-26T05:52:57.033Z,39.83
2019-04-26T05:55:46.912Z,44.20
2019-04-26T05:58:19.679Z,44.85
2019-04-26T06:00:55.761Z,42.90
2019-04-26T06:03:33.332Z,37.65
2019-04-26T06:06:20.057Z,36.98
2019-04-26T06:09:07.989Z,37.25
2019-04-26T06:11:44.162Z,36.65
2019-04-26T06:14:43.245Z,35.28
2019-04-26T06:17:23.725Z,36.88
2019-04-26T06:20:08.783Z,35.33
2019-04-26T06:22:44.627Z,38.53
2019-04-26T06:25:16.277Z,36.75
2019-04-26T06:28:03.604Z,40.15
2019-04-26T06:30:45.834Z,37.55
2019-04-26T06:35:45.116Z,34.95
2019-04-26T06:38:19.444Z,40.70
2019-04-26T06:41:04.720Z,33.73
2019-04-26T06:43:36.368Z,41.30
2019-04-26T06:46:24.516Z,39.00
2019-04-26T06:49:11.037Z,43.28
2019-04-26T06:51:41.148Z,37.65
2019-04-26T06:54:18.110Z,42.05
2019-04-26T06:57:13.756Z,42.55
2019-04-26T06:59:42.829Z,38.88
2019-04-26T07:02:30.366Z,43.20
2019-04-26T07:05:09.495Z,43.00
2019-04-26T07:07:55.884Z,45.38
2019-04-26T07:10:30.412Z,42.17
2019-04-26T07:13:01.979Z,39.42
2019-04-26T07:15:44.271Z,44.55
2019-04-26T07:18:29.964Z,41.92
2019-04-26T07:21:10.733Z,40.78
2019-04-26T07:23:42.486Z,39.85
2019-04-26T07:26:34.520Z,42.73
2019-04-26T07:29:15.187Z,41.53
2019-04-26T07:31:51.245Z,42.90
2019-04-26T07:34:37.959Z,31.77
2019-04-26T07:37:23.022Z,36.65
2019-04-26T07:40:12.601Z,34.35
2019-04-26T07:42:50.097Z,33.00
2019-04-26T07:45:27.383Z,34.53
2019-04-26T07:48:17.682Z,36.73
2019-04-26T07:50:50.449Z,38.20
2019-04-26T07:53:38.704Z,35.95
2019-04-26T07:56:11.421Z,32.30
2019-04-26T07:58:53.788Z,30.92
2019-04-26T08:01:34.654Z,29.67
2019-04-26T08:04:09.383Z,30.77
2019-04-26T08:06:39.762Z,31.35
2019-04-26T08:09:25.974Z,32.10
2019-04-26T08:11:44.143Z,30.72
2019-04-26T08:14:31.261Z,32.55
2019-04-26T08:17:23.254Z,26.23
2019-04-26T08:20:13.970Z,34.63
2019-04-26T08:22:44.087Z,31.82
2019-04-26T08:25:14.522Z,26.07
2019-04-26T08:27:44.151Z,31.37
2019-04-26T08:30:17.448Z,29.12
2019-04-26T08:32:56.627Z,26.70
2019-04-26T08:35:31.538Z,29.57
2019-04-26T08:38:08.262Z,24.72
2019-04-26T08:40:35.276Z,33.60
2019-04-26T08:43:22.614Z,26.48
2019-04-26T08:46:10.124Z,25.72
2019-04-26T08:48:38.708Z,23.57
2019-04-26T08:51:21.988Z,29.65
2019-04-26T08:53:52.325Z,26.50
2019-04-26T08:56:22.333Z,29.75
2019-04-26T08:58:52.249Z,32.98
2019-04-26T09:01:23.808Z,24.23
2019-04-26T09:03:55.463Z,32.30
2019-04-26T09:06:26.829Z,23.60
2019-04-26T09:08:56.062Z,29.32
2019-04-26T09:11:30.141Z,25.80
2019-04-26T09:13:57.059Z,22.47
2019-04-26T09:16:25.645Z,20.72
2019-04-26T09:18:59.227Z,24.35
2019-04-26T09:21:28.828Z,18.37
2019-04-26T09:24:08.246Z,19.87
2019-04-26T09:26:46.799Z,29.25
2019-04-26T09:29:30.469Z,15.53
2019-04-26T09:32:12.784Z,28.57
2019-04-26T09:34:42.980Z,20.88
2019-04-26T09:37:11.772Z,20.65
2019-04-26T09:39:41.553Z,19.35
2019-04-26T09:42:23.985Z,24.67
2019-04-26T09:45:03.419Z,18.98
2019-04-26T09:47:36.316Z,38.53
2019-04-26T09:50:11.349Z,19.92
2019-04-26T09:52:42.571Z,18.55
2019-04-26T09:55:11.166Z,23.12
2019-04-26T09:57:43.445Z,22.93
2019-04-26T10:00:14.455Z,22.10
2019-04-26T10:03:05.524Z,19.12
2019-04-26T10:05:33.360Z,23.45
2019-04-26T10:08:01.935Z,23.30
2019-04-26T10:10:31.065Z,18.50
2019-04-26T10:13:05.047Z,16.55
2019-04-26T10:15:44.282Z,21.25
2019-04-26T10:18:14.191Z,22.42
2019-04-26T10:20:42.779Z,20.17
2019-04-26T10:23:11.256Z,21.80
2019-04-26T10:25:40.761Z,22.52
2019-04-26T10:28:11.745Z,19.00
2019-04-26T10:30:42.381Z,22.10
2019-04-26T10:33:09.586Z,22.73
2019-04-26T10:35:38.309Z,26.42
2019-04-26T10:38:06.752Z,23.70
2019-04-26T10:40:35.944Z,19.00
2019-04-26T10:43:04.840Z,22.13
2019-04-26T10:45:33.529Z,15.38
2019-04-26T10:48:02.014Z,18.70
2019-04-26T10:50:33.083Z,26.20
2019-04-26T10:53:11.458Z,18.75
2019-04-26T10:55:41.538Z,20.80
2019-04-26T10:58:14.667Z,27.22
2019-04-26T11:00:48.419Z,21.30
2019-04-26T11:03:15.111Z,21.45
2019-04-26T11:05:43.698Z,19.50
2019-04-26T11:08:12.174Z,20.25
2019-04-26T11:10:48.455Z,21.70
2019-04-26T11:13:10.836Z,18.23
2019-04-26T11:15:39.465Z,20.65
2019-04-26T11:18:08.048Z,20.02
2019-04-26T11:20:36.522Z,20.65
2019-04-26T11:23:08.108Z,19.02
2019-04-26T11:25:35.090Z,19.23
2019-04-26T11:28:03.604Z,16.67
2019-04-26T11:30:32.100Z,19.65
2019-04-26T11:33:00.570Z,17.12
2019-04-26T11:35:29.317Z,21.50
2019-04-26T11:37:59.282Z,25.75
2019-04-26T11:40:27.757Z,21.15
2019-04-26T11:42:56.237Z,24.32
2019-04-26T11:45:24.825Z,37.17
2019-04-26T11:47:56.347Z,22.20
2019-04-26T11:50:23.389Z,17.65
2019-04-26T11:52:51.900Z,17.32
2019-04-26T11:55:20.373Z,17.62
2019-04-26T11:57:49.197Z,20.68
2019-04-26T12:00:19.729Z,16.67
2019-04-26T12:02:50.809Z,24.05
2019-04-26T12:05:29.175Z,14.85
2019-04-26T12:07:59.281Z,23.92
2019-04-26T12:10:27.757Z,16.90
2019-04-26T12:13:05.479Z,23.18
2019-04-26T12:15:30.484Z,20.45
2019-04-26T12:17:58.768Z,22.62
2019-04-26T12:20:28.431Z,16.32
2019-04-26T12:22:57.330Z,16.27
2019-04-26T12:25:25.919Z,19.60
2019-04-26T12:27:54.456Z,22.02
2019-04-26T12:30:26.457Z,17.50
2019-04-26T12:32:53.300Z,16.35
2019-04-26T12:35:21.783Z,17.12
2019-04-26T12:37:50.587Z,22.13
2019-04-26T12:40:20.587Z,23.50
2019-04-26T12:42:50.169Z,17.98
2019-04-26T12:45:23.205Z,19.80
2019-04-26T12:47:56.282Z,14.73
2019-04-26T12:50:24.772Z,14.70
2019-04-26T12:52:55.669Z,19.87
2019-04-26T12:55:23.673Z,32.35
2019-04-26T12:57:52.240Z,25.15
2019-04-26T13:00:22.461Z,31.12
2019-04-26T13:02:54.223Z,24.92
2019-04-26T13:05:21.065Z,21.77
2019-04-26T13:07:55.069Z,16.75
2019-04-26T13:10:41.589Z,17.50
2019-04-26T13:13:11.697Z,21.60
2019-04-26T13:15:46.180Z,22.60
2019-04-26T13:18:13.371Z,22.62
2019-04-26T13:20:42.069Z,31.68
2019-04-26T13:23:10.646Z,29.92
2019-04-26T13:25:40.533Z,27.27
2019-04-26T13:28:09.339Z,30.52
2019-04-26T13:30:40.075Z,23.70
2019-04-26T13:33:10.054Z,28.25
2019-04-26T13:35:41.290Z,20.37
2019-04-26T13:38:08.815Z,21.27
2019-04-26T13:40:40.362Z,21.05
2019-04-26T13:43:08.829Z,19.32
2019-04-26T13:45:55.977Z,19.23
2019-04-26T13:48:31.914Z,23.20
2019-04-26T13:51:05.855Z,24.35
2019-04-26T13:53:34.714Z,33.92
2019-04-26T13:56:03.455Z,22.48
2019-04-26T13:58:32.085Z,22.82
2019-04-26T14:01:00.593Z,29.30
2019-04-26T14:03:31.618Z,21.20
2019-04-26T14:05:59.256Z,20.88
2019-04-26T14:08:27.957Z,23.15
2019-04-26T14:10:56.440Z,24.67
2019-04-26T14:13:26.004Z,29.00
2019-04-26T14:15:54.833Z,27.90
2019-04-26T14:18:23.414Z,33.40
2019-04-26T14:20:54.663Z,25.68
2019-04-26T14:23:29.693Z,25.60
2019-04-26T14:26:09.019Z,16.73
2019-04-26T14:28:37.649Z,26.70
2019-04-26T14:31:06.200Z,23.92
2019-04-26T14:33:34.674Z,21.33
2019-04-26T14:36:03.158Z,21.85
2019-04-26T14:38:39.417Z,24.47
2019-04-26T14:41:04.252Z,22.93
2019-04-26T14:43:40.511Z,28.83
2019-04-26T14:46:02.244Z,29.90
2019-04-26T14:48:36.061Z,31.20
2019-04-26T14:51:07.821Z,31.12
2019-04-26T14:53:32.173Z,28.05
2019-04-26T14:56:01.242Z,37.28
2019-04-26T14:58:30.483Z,25.52
2019-04-26T15:01:05.865Z,31.00
2019-04-26T15:03:38.775Z,32.67
2019-04-26T15:06:20.470Z,25.02
2019-04-26T15:08:48.925Z,22.70
2019-04-26T15:11:17.624Z,28.55
2019-04-26T15:13:46.212Z,23.35
2019-04-26T15:16:14.690Z,21.60
2019-04-26T15:18:43.129Z,30.17
2019-04-26T15:21:12.928Z,20.57
2019-04-26T15:23:41.702Z,28.02
2019-04-26T15:26:10.164Z,27.82
2019-04-26T15:28:38.744Z,27.22
2019-04-26T15:31:07.223Z,21.20
2019-04-26T15:33:36.114Z,25.37
2019-04-26T15:36:10.436Z,34.92
2019-04-26T15:38:41.244Z,25.95
2019-04-26T15:41:11.560Z,30.68
2019-04-26T15:43:42.827Z,24.30
2019-04-26T15:46:17.367Z,30.75
2019-04-26T15:51:28.768Z,20.90
2019-04-26T15:53:57.458Z,27.70
2019-04-26T15:56:27.807Z,30.72
2019-04-26T15:58:56.495Z,35.43
2019-04-26T16:01:25.001Z,25.45
2019-04-26T16:03:53.732Z,21.25
2019-04-26T16:06:23.671Z,35.15
2019-04-26T16:08:52.325Z,24.87
2019-04-26T16:11:20.871Z,23.05
2019-04-26T16:13:52.119Z,15.75
2019-04-26T16:16:25.462Z,23.87
2019-04-26T16:18:53.473Z,15.78
2019-04-26T16:21:19.957Z,15.43
2019-04-26T16:23:54.012Z,18.65
2019-04-26T16:26:19.757Z,17.60
2019-04-26T16:29:05.223Z,24.40
2019-04-26T16:31:52.914Z,18.65
2019-04-26T16:34:23.455Z,17.85
2019-04-26T16:36:52.588Z,25.70
2019-04-26T16:39:23.251Z,28.32
2019-04-26T16:41:52.373Z,21.97
2019-04-26T16:44:28.083Z,19.02
2019-04-26T16:46:53.923Z,23.15
2019-04-26T16:49:23.450Z,24.02
2019-04-26T16:52:01.494Z,21.27
2019-04-26T16:54:26.096Z,15.38
2019-04-26T16:56:52.539Z,25.92
2019-04-26T16:59:23.992Z,31.45
2019-04-26T17:01:53.227Z,18.42
2019-04-26T17:04:29.085Z,21.02
2019-04-26T17:06:52.913Z,21.65
2019-04-26T17:09:23.606Z,27.05
2019-04-26T17:11:52.380Z,23.85
2019-04-26T17:14:22.446Z,20.55
2019-04-26T17:16:53.047Z,28.25
2019-04-26T17:19:22.767Z,23.00
2019-04-26T17:21:56.621Z,28.07
2019-04-26T17:24:27.951Z,26.40
2019-04-26T17:26:58.080Z,27.58
2019-04-26T17:29:26.767Z,27.22
2019-04-26T17:31:55.353Z,36.33
2019-04-26T17:34:28.871Z,30.70
2019-04-26T17:36:54.051Z,26.82
2019-04-26T17:39:22.718Z,32.70
2019-04-26T17:41:54.168Z,26.15
2019-04-26T17:44:26.440Z,31.60
2019-04-26T17:46:57.108Z,31.87
2019-04-26T17:49:27.222Z,23.07
2019-04-26T17:51:57.994Z,26.35
2019-04-26T17:54:41.732Z,29.02
2019-04-26T17:56:54.229Z,26.02
2019-04-26T17:59:33.359Z,31.02
2019-04-26T18:02:00.760Z,24.70
2019-04-26T18:04:32.226Z,19.30
2019-04-26T18:07:02.067Z,34.25
2019-04-26T18:09:40.529Z,26.87
2019-04-26T18:11:55.358Z,20.60
2019-04-26T18:14:29.676Z,24.65
2019-04-26T18:16:57.179Z,20.37
2019-04-26T18:19:47.385Z,31.40
2019-04-26T18:22:36.167Z,23.95
2019-04-26T18:25:10.706Z,26.55
2019-04-26T18:27:38.321Z,25.17
2019-04-26T18:30:11.505Z,28.67
2019-04-26T18:32:42.140Z,26.23
2019-04-26T18:35:09.135Z,26.15
2019-04-26T18:37:39.523Z,26.12
2019-04-26T18:40:08.516Z,25.40
2019-04-26T18:42:41.464Z,26.50
2019-04-26T18:45:29.787Z,27.32
2019-04-26T18:48:01.125Z,21.60
2019-04-26T18:50:28.469Z,29.15
2019-04-26T18:53:15.567Z,24.98
2019-04-26T18:55:49.069Z,20.97
2019-04-26T18:58:18.065Z,24.35
2019-04-26T19:00:47.058Z,26.30
2019-04-26T19:03:16.194Z,26.37
2019-04-26T19:05:45.348Z,26.27
2019-04-26T19:08:14.927Z,27.90
2019-04-26T19:10:44.147Z,25.52
2019-04-26T19:13:36.581Z,30.62
2019-04-26T19:16:05.482Z,22.55
2019-04-26T19:18:37.970Z,20.52
2019-04-26T19:21:15.992Z,45.15
2019-04-26T19:23:44.749Z,74.40
2019-04-26T19:26:14.063Z,31.52
2019-04-26T19:28:45.045Z,42.43
2019-04-26T19:31:13.990Z,40.48
2019-04-26T19:33:47.608Z,28.32
2019-04-26T19:36:17.776Z,24.20
2019-04-26T19:38:49.996Z,36.68
2019-04-26T19:41:17.388Z,24.43
2019-04-26T19:43:47.248Z,23.32
2019-04-26T19:46:25.366Z,27.93
2019-04-26T19:49:07.978Z,27.15
2019-04-26T19:51:41.468Z,21.45
2019-04-26T19:54:35.713Z,24.12
2019-04-26T19:57:04.014Z,20.55
2019-04-26T19:59:34.306Z,24.75
2019-04-26T20:02:06.115Z,27.37
2019-04-26T20:04:35.107Z,21.55
2019-04-26T20:07:04.195Z,22.05
2019-04-26T20:09:33.091Z,15.35
2019-04-26T20:12:02.490Z,20.37
2019-04-26T20:14:44.633Z,18.65
2019-04-26T20:17:02.318Z,23.62
2019-04-26T20:19:36.462Z,19.80
2019-04-26T20:22:03.490Z,16.87
2019-04-26T20:24:32.377Z,22.70
2019-04-26T20:27:03.143Z,21.10
2019-04-26T20:29:32.255Z,21.45
2019-04-26T20:32:08.876Z,17.82
2019-04-26T20:34:37.765Z,23.05
2019-04-26T20:37:09.131Z,18.42
2019-04-26T20:39:37.706Z,23.50
2019-04-26T20:42:06.589Z,19.67
2019-04-26T20:44:50.367Z,20.02
2019-04-26T20:47:07.583Z,13.80
2019-04-26T20:49:47.436Z,26.70
2019-04-26T20:52:07.477Z,18.35
2019-04-26T20:54:36.469Z,18.10
2019-04-26T20:57:07.722Z,19.40
2019-04-26T21:00:01.409Z,19.67
2019-04-26T21:02:26.490Z,17.42
2019-04-26T21:04:55.483Z,22.58
2019-04-26T21:07:24.576Z,20.88
2019-04-26T21:09:53.472Z,18.62
2019-04-26T21:12:22.462Z,18.12
2019-04-26T21:14:51.743Z,28.73
2019-04-26T21:17:26.393Z,23.18
2019-04-26T21:19:55.007Z,16.25
2019-04-26T21:22:28.471Z,24.52
2019-04-26T21:24:58.395Z,20.08
2019-04-26T21:27:29.812Z,17.80
2019-04-26T21:30:05.073Z,20.15
2019-04-26T21:32:55.327Z,20.65
2019-04-26T21:35:25.026Z,18.52
2019-04-26T21:37:56.561Z,16.05
2019-04-26T21:40:28.156Z,26.62
2019-04-26T21:42:59.446Z,15.67
2019-04-26T21:45:30.701Z,18.15
2019-04-26T21:47:58.136Z,19.37
2019-04-26T21:50:29.206Z,19.65
2019-04-26T21:52:58.580Z,20.70
2019-04-26T21:55:35.337Z,20.62
2019-04-26T21:57:58.713Z,20.45
2019-04-26T22:00:29.441Z,20.10
2019-04-26T22:02:58.436Z,21.05
2019-04-26T22:05:27.330Z,18.45
2019-04-26T22:07:56.116Z,22.27
2019-04-26T22:10:39.623Z,20.10
2019-04-26T22:13:08.029Z,18.30
2019-04-26T22:15:56.379Z,17.73
2019-04-26T22:18:26.908Z,18.27
2019-04-26T22:20:57.438Z,19.17
2019-04-26T22:23:30.323Z,23.52
2019-04-26T22:26:00.149Z,23.45
2019-04-26T22:28:31.343Z,20.82
2019-04-26T22:31:06.966Z,20.77
2019-04-26T22:33:32.648Z,21.42
2019-04-26T22:36:03.774Z,23.10
2019-04-26T22:38:33.972Z,26.48
2019-04-26T22:41:03.158Z,22.37
2019-04-26T22:43:39.880Z,22.17
2019-04-26T22:46:14.096Z,22.25
2019-04-26T22:48:44.626Z,23.75
2019-04-26T22:51:14.007Z,22.20
2019-04-26T22:53:43.418Z,24.07
2019-04-26T22:56:13.359Z,25.62
2019-04-26T22:58:44.112Z,19.77
2019-04-26T23:01:13.255Z,25.80
2019-04-26T23:03:46.277Z,23.42
2019-04-26T23:06:13.591Z,23.87
2019-04-26T23:08:43.839Z,18.80
2019-04-26T23:11:13.407Z,24.95
2019-04-26T23:14:00.678Z,23.10
2019-04-26T23:17:01.447Z,21.65
2019-04-26T23:19:25.015Z,21.50
2019-04-26T23:21:56.206Z,16.50
2019-04-26T23:24:25.213Z,19.55
2019-04-26T23:26:54.225Z,16.95
2019-04-26T23:29:23.194Z,19.50
2019-04-26T23:31:53.440Z,20.02
2019-04-26T23:34:22.799Z,27.75
2019-04-26T23:36:54.046Z,22.75
2019-04-26T23:39:24.651Z,29.07
2019-04-26T23:41:54.091Z,20.62
2019-04-26T23:44:23.339Z,21.27
2019-04-26T23:46:56.638Z,21.20
2019-04-26T23:49:23.315Z,24.82
2019-04-26T23:51:53.431Z,21.62
2019-04-26T23:54:23.873Z,22.95
2019-04-26T23:56:55.743Z,19.67
2019-04-26T23:59:24.769Z,21.07
